createdAt,value
2022-11-17T00:00:42.215Z,6.36
2022-11-17T00:03:29.030Z,6.49
2022-11-17T00:06:16.837Z,6.47
2022-11-17T00:09:03.665Z,6.56
2022-11-17T00:12:09.203Z,6.25
2022-11-17T00:14:55.993Z,6.49
2022-11-17T00:17:42.743Z,6.62
2022-11-17T00:20:50.694Z,6.53
2022-11-17T00:23:49.970Z,6.61
2022-11-17T00:26:57.132Z,6.62
2022-11-17T00:29:43.901Z,6.66
2022-11-17T00:32:49.292Z,6.67
2022-11-17T00:35:36.083Z,6.64
2022-11-17T00:38:25.115Z,6.64
2022-11-17T00:41:11.878Z,6.71
2022-11-17T00:43:58.832Z,6.67
2022-11-17T00:46:45.566Z,6.72
2022-11-17T00:49:32.427Z,6.71
2022-11-17T00:52:21.572Z,6.75
2022-11-17T00:55:08.396Z,6.75
2022-11-17T00:57:55.207Z,6.76
2022-11-17T01:00:41.976Z,6.78
2022-11-17T01:03:28.895Z,6.83
2022-11-17T01:06:18.230Z,6.84
2022-11-17T01:09:18.031Z,6.85
2022-11-17T01:12:05.079Z,6.68
2022-11-17T01:14:51.865Z,6.98
2022-11-17T01:17:38.628Z,6.82
2022-11-17T01:20:25.424Z,6.89
2022-11-17T01:23:12.171Z,6.98
2022-11-17T01:26:07.668Z,6.92
2022-11-17T01:28:57.955Z,7.00
2022-11-17T01:31:45.702Z,6.89
2022-11-17T01:34:32.572Z,6.99
2022-11-17T01:37:21.509Z,6.94
2022-11-17T01:40:11.953Z,6.98
2022-11-17T01:42:58.688Z,6.93
2022-11-17T01:45:45.504Z,6.98
2022-11-17T01:48:32.356Z,6.95
2022-11-17T01:51:19.578Z,6.94
2022-11-17T01:54:08.858Z,7.01
2022-11-17T01:57:00.913Z,7.04
2022-11-17T02:00:08.527Z,7.02
2022-11-17T02:02:56.098Z,7.11
2022-11-17T02:06:06.169Z,7.10
2022-11-17T02:09:24.543Z,6.84
2022-11-17T02:12:26.906Z,6.03
2022-11-17T02:15:22.070Z,7.08
2022-11-17T02:18:28.717Z,6.25
2022-11-17T02:21:59.152Z,7.09
2022-11-17T02:25:40.420Z,7.03
2022-11-17T02:28:49.810Z,7.08
2022-11-17T02:32:16.293Z,6.91
2022-11-17T02:35:28.255Z,6.59
2022-11-17T02:38:30.877Z,7.18
2022-11-17T02:42:00.299Z,7.28
2022-11-17T02:48:40.572Z,6.56
2022-11-17T02:51:41.895Z,6.28
2022-11-17T02:54:36.022Z,6.10
2022-11-17T02:57:55.226Z,6.01
2022-11-17T03:01:17.974Z,7.24
2022-11-17T03:08:31.611Z,7.36
2022-11-17T03:11:58.699Z,7.29
2022-11-17T03:15:27.061Z,6.27
2022-11-17T03:18:46.627Z,6.19
2022-11-17T03:22:07.450Z,6.16
2022-11-17T03:25:13.166Z,7.26
2022-11-17T03:28:21.721Z,6.13
2022-11-17T03:31:24.039Z,7.23
2022-11-17T03:33:57.684Z,6.20
2022-11-17T03:36:49.472Z,6.86
2022-11-17T03:39:43.204Z,6.36
2022-11-17T03:42:43.164Z,6.21
2022-11-17T03:45:35.196Z,7.12
2022-11-17T03:49:04.600Z,7.27
2022-11-17T03:51:40.134Z,6.19
2022-11-17T03:54:17.152Z,6.60
2022-11-17T03:57:44.969Z,7.22
2022-11-17T04:00:33.550Z,6.21
2022-11-17T04:03:22.013Z,7.29
2022-11-17T04:06:18.199Z,6.57
2022-11-17T04:08:53.611Z,7.24
2022-11-17T04:11:41.069Z,7.30
2022-11-17T04:14:39.984Z,6.83
2022-11-17T04:17:26.018Z,6.35
2022-11-17T04:19:56.722Z,7.52
2022-11-17T04:22:47.958Z,6.33
2022-11-17T04:26:35.820Z,6.95
2022-11-17T04:30:06.575Z,7.50
2022-11-17T04:33:07.582Z,7.42
2022-11-17T04:36:19.327Z,7.40
2022-11-17T04:58:16.393Z,7.35
2022-11-17T05:00:55.088Z,6.96
2022-11-17T05:04:55.739Z,6.40
2022-11-17T05:07:43.328Z,7.22
2022-11-17T05:11:49.413Z,7.41
2022-11-17T05:26:36.711Z,6.31
2022-11-17T05:31:01.471Z,6.27
2022-11-17T05:36:18.039Z,6.24
2022-11-17T05:44:18.698Z,7.13
2022-11-17T05:56:46.073Z,6.58
2022-11-17T06:03:43.592Z,7.38
2022-11-17T06:06:10.820Z,7.94
2022-11-17T06:08:37.555Z,8.64
2022-11-17T06:11:04.145Z,8.76
2022-11-17T06:13:30.914Z,8.44
2022-11-17T06:16:00.479Z,7.78
2022-11-17T06:20:05.812Z,7.63
2022-11-17T06:28:30.476Z,6.90
2022-11-17T06:31:05.169Z,6.97
2022-11-17T06:36:52.877Z,6.79
2022-11-17T06:39:29.354Z,6.99
2022-11-17T06:45:48.021Z,6.76
2022-11-17T06:54:54.212Z,7.27
2022-11-17T06:57:23.056Z,7.22
2022-11-17T06:59:49.653Z,7.20
2022-11-17T07:02:16.236Z,7.08
2022-11-17T07:04:42.848Z,7.09
2022-11-17T07:07:09.426Z,7.12
2022-11-17T07:09:36.005Z,7.18
2022-11-17T07:12:02.497Z,7.13
2022-11-17T07:14:29.002Z,7.20
2022-11-17T07:16:55.587Z,7.10
2022-11-17T07:19:22.152Z,7.12
2022-11-17T07:21:48.742Z,7.20
2022-11-17T07:24:17.707Z,7.28
2022-11-17T07:26:44.206Z,7.17
2022-11-17T07:29:10.722Z,7.16
2022-11-17T07:31:39.289Z,7.16
2022-11-17T07:34:05.901Z,7.24
2022-11-17T07:36:33.220Z,7.17
2022-11-17T07:38:59.733Z,7.14
2022-11-17T07:41:28.444Z,7.19
2022-11-17T07:43:54.933Z,7.19
2022-11-17T07:46:21.474Z,7.31
2022-11-17T07:48:47.978Z,7.46
2022-11-17T07:51:15.829Z,7.30
2022-11-17T07:53:42.359Z,7.26
2022-11-17T07:56:11.474Z,7.37
2022-11-17T07:58:40.295Z,7.35
2022-11-17T08:01:15.537Z,7.34
2022-11-17T08:03:43.121Z,7.40
2022-11-17T08:06:09.978Z,7.44
2022-11-17T08:08:38.354Z,7.41
2022-11-17T08:11:13.726Z,7.40
2022-11-17T08:13:40.663Z,7.50
2022-11-17T08:16:08.948Z,7.46
2022-11-17T08:18:36.815Z,7.41
2022-11-17T08:21:14.526Z,7.41
2022-11-17T08:23:41.954Z,7.45
2022-11-17T08:26:11.535Z,7.50
2022-11-17T08:28:38.683Z,7.68
2022-11-17T08:31:07.244Z,7.80
2022-11-17T08:33:35.961Z,8.07
2022-11-17T08:36:09.366Z,7.86
2022-11-17T08:38:38.637Z,8.36
2022-11-17T08:41:07.758Z,8.72
2022-11-17T08:43:35.221Z,9.61
2022-11-17T08:46:02.614Z,10.38
2022-11-17T08:48:33.075Z,10.39
2022-11-17T08:51:05.654Z,9.71
2022-11-17T08:53:32.378Z,9.23
2022-11-17T08:56:01.024Z,8.91
2022-11-17T08:58:27.517Z,8.84
2022-11-17T09:00:54.071Z,8.58
2022-11-17T09:03:23.658Z,8.57
2022-11-17T09:05:50.371Z,8.51
2022-11-17T09:08:43.834Z,8.59
2022-11-17T09:11:08.508Z,8.41
2022-11-17T09:13:35.904Z,8.46
2022-11-17T09:16:07.393Z,8.38
2022-11-17T09:18:34.868Z,8.24
2022-11-17T09:21:03.508Z,8.35
2022-11-17T09:23:31.552Z,8.31
2022-11-17T09:26:06.273Z,8.40
2022-11-17T09:28:33.435Z,8.47
2022-11-17T09:31:05.180Z,8.48
2022-11-17T09:33:31.657Z,8.41
2022-11-17T09:36:00.448Z,8.73
2022-11-17T09:38:26.881Z,8.89
2022-11-17T09:40:55.917Z,8.92
2022-11-17T09:43:34.518Z,8.59
2022-11-17T09:46:13.429Z,8.56
2022-11-17T09:48:47.617Z,8.33
2022-11-17T09:51:18.788Z,8.41
2022-11-17T09:53:53.689Z,8.40
2022-11-17T09:56:21.015Z,8.29
2022-11-17T09:58:58.815Z,8.40
2022-11-17T10:01:28.324Z,8.39
2022-11-17T10:03:56.893Z,8.40
2022-11-17T10:06:29.338Z,8.53
2022-11-17T10:09:01.823Z,8.60
2022-11-17T10:11:34.862Z,8.62
2022-11-17T10:14:10.718Z,8.76
2022-11-17T10:16:38.804Z,8.84
2022-11-17T10:19:15.624Z,8.99
2022-11-17T10:21:42.416Z,9.25
2022-11-17T10:24:09.263Z,9.52
2022-11-17T10:26:49.381Z,9.49
2022-11-17T10:29:22.735Z,9.58
2022-11-17T10:31:49.751Z,9.28
2022-11-17T10:34:41.094Z,9.15
2022-11-17T10:37:13.981Z,8.89
2022-11-17T10:39:42.642Z,8.98
2022-11-17T10:42:27.789Z,9.03
2022-11-17T10:44:59.304Z,9.14
2022-11-17T10:47:32.783Z,9.15
2022-11-17T10:50:25.876Z,9.18
2022-11-17T10:52:54.197Z,9.58
2022-11-17T10:55:27.970Z,9.50
2022-11-17T10:58:28.300Z,9.61
2022-11-17T11:00:57.814Z,9.67
2022-11-17T11:03:30.128Z,9.72
2022-11-17T11:05:59.169Z,9.90
2022-11-17T11:08:32.252Z,9.94
2022-11-17T11:10:59.811Z,10.16
2022-11-17T11:13:31.642Z,10.29
2022-11-17T11:15:58.188Z,10.16
2022-11-17T11:18:28.049Z,10.01
2022-11-17T11:21:17.836Z,9.95
2022-11-17T11:24:08.640Z,9.80
2022-11-17T11:27:03.407Z,10.05
2022-11-17T11:29:59.500Z,9.99
2022-11-17T11:32:40.291Z,10.18
2022-11-17T11:35:51.032Z,10.32
2022-11-17T11:38:39.483Z,10.33
2022-11-17T11:41:09.073Z,10.25
2022-11-17T11:43:44.281Z,10.22
2022-11-17T11:46:37.752Z,10.28
2022-11-17T11:49:11.963Z,10.38
2022-11-17T11:51:39.444Z,10.35
2022-11-17T11:54:09.468Z,10.40
2022-11-17T11:56:40.328Z,10.47
2022-11-17T11:59:11.044Z,10.50
2022-11-17T12:01:59.996Z,10.51
2022-11-17T12:04:44.732Z,10.43
2022-11-17T12:07:36.721Z,10.28
2022-11-17T12:10:24.903Z,10.32
2022-11-17T12:12:51.503Z,10.23
2022-11-17T12:15:17.929Z,10.33
2022-11-17T12:18:03.894Z,10.31
2022-11-17T12:20:33.432Z,10.37
2022-11-17T12:23:22.455Z,10.45
2022-11-17T12:25:56.937Z,10.59
2022-11-17T12:28:40.770Z,10.69
2022-11-17T12:31:44.571Z,10.85
2022-11-17T12:34:20.646Z,11.02
2022-11-17T12:37:14.631Z,11.22
2022-11-17T12:40:01.556Z,11.09
2022-11-17T12:42:33.184Z,11.01
2022-11-17T12:45:13.545Z,11.04
2022-11-17T12:47:54.744Z,11.44
2022-11-17T12:50:45.119Z,11.26
2022-11-17T12:53:39.203Z,11.04
2022-11-17T12:56:18.335Z,10.83
2022-11-17T12:58:50.877Z,11.16
2022-11-17T13:01:42.114Z,11.31
2022-11-17T13:04:17.613Z,11.42
2022-11-17T13:07:05.588Z,11.10
2022-11-17T13:09:44.438Z,10.38
2022-11-17T13:12:23.244Z,9.09
2022-11-17T13:15:03.731Z,8.96
2022-11-17T13:17:33.050Z,8.42
2022-11-17T13:20:15.821Z,8.76
2022-11-17T13:22:43.123Z,9.12
2022-11-17T13:25:22.540Z,8.27
2022-11-17T13:27:56.002Z,8.40
2022-11-17T13:30:32.014Z,8.62
2022-11-17T13:33:03.759Z,9.08
2022-11-17T13:35:33.370Z,8.86
2022-11-17T13:38:16.041Z,8.56
2022-11-17T13:40:46.410Z,9.35
2022-11-17T13:43:39.641Z,8.89
2022-11-17T13:46:46.584Z,9.12
2022-11-17T13:50:54.782Z,9.30
2022-11-17T13:54:17.437Z,9.48
2022-11-17T14:00:50.924Z,10.29
2022-11-17T14:03:35.642Z,10.24
2022-11-17T14:06:04.699Z,10.25
2022-11-17T14:08:33.228Z,10.11
2022-11-17T14:11:11.787Z,10.19
2022-11-17T14:13:45.176Z,10.02
2022-11-17T14:16:20.761Z,10.01
2022-11-17T14:19:03.052Z,9.73
2022-11-17T14:21:30.488Z,9.69
2022-11-17T14:24:11.371Z,9.68
2022-11-17T14:26:44.628Z,9.71
2022-11-17T14:29:13.313Z,9.69
2022-11-17T14:31:39.921Z,9.69
2022-11-17T14:34:06.488Z,9.84
2022-11-17T14:36:33.920Z,9.85
2022-11-17T14:39:01.965Z,9.89
2022-11-17T14:41:31.270Z,9.85
2022-11-17T14:44:00.651Z,9.85
2022-11-17T14:46:27.170Z,9.71
2022-11-17T14:48:55.307Z,9.47
2022-11-17T14:51:22.486Z,9.34
2022-11-17T14:53:49.113Z,9.39
2022-11-17T14:56:18.032Z,9.34
2022-11-17T14:58:46.581Z,9.27
2022-11-17T15:01:19.250Z,9.29
2022-11-17T15:03:46.717Z,9.23
2022-11-17T15:06:19.305Z,9.27
2022-11-17T15:08:46.520Z,9.30
2022-11-17T15:11:19.156Z,9.41
2022-11-17T15:13:45.647Z,9.37
2022-11-17T15:16:12.174Z,9.44
2022-11-17T15:18:38.644Z,9.33
2022-11-17T15:21:08.048Z,9.32
2022-11-17T15:23:37.275Z,9.28
2022-11-17T15:26:05.515Z,9.16
2022-11-17T15:28:32.083Z,9.01
2022-11-17T15:30:58.778Z,9.13
2022-11-17T15:33:25.614Z,9.32
2022-11-17T15:36:05.528Z,9.24
2022-11-17T15:38:32.932Z,9.27
2022-11-17T15:40:59.586Z,9.29
2022-11-17T15:43:27.860Z,9.38
2022-11-17T15:46:04.481Z,9.25
2022-11-17T15:48:32.244Z,9.38
2022-11-17T15:51:00.087Z,9.50
2022-11-17T15:53:32.127Z,9.60
2022-11-17T15:56:11.386Z,9.47
2022-11-17T15:58:42.088Z,9.38
2022-11-17T16:01:09.010Z,9.32
2022-11-17T16:03:37.643Z,9.23
2022-11-17T16:06:04.535Z,9.43
2022-11-17T16:08:31.976Z,9.41
2022-11-17T16:10:58.550Z,9.45
2022-11-17T16:13:25.052Z,9.44
2022-11-17T16:15:52.515Z,9.53
2022-11-17T16:18:19.381Z,9.57
2022-11-17T16:20:48.372Z,9.52
2022-11-17T16:23:15.501Z,9.43
2022-11-17T16:25:48.618Z,9.28
2022-11-17T16:28:16.637Z,9.33
2022-11-17T16:30:43.257Z,9.34
2022-11-17T16:33:15.093Z,9.46
2022-11-17T16:35:41.628Z,9.50
2022-11-17T16:38:12.993Z,9.48
2022-11-17T16:40:39.904Z,9.57
2022-11-17T16:43:09.878Z,9.58
2022-11-17T16:45:44.927Z,9.51
2022-11-17T16:48:12.560Z,9.44
2022-11-17T16:50:42.263Z,9.54
2022-11-17T16:53:11.100Z,9.56
2022-11-17T16:55:38.149Z,9.40
2022-11-17T16:58:07.384Z,9.37
2022-11-17T17:00:37.428Z,9.36
2022-11-17T17:03:04.015Z,9.34
2022-11-17T17:05:30.675Z,9.25
2022-11-17T17:07:57.384Z,9.31
2022-11-17T17:10:24.416Z,9.19
2022-11-17T17:12:50.925Z,9.02
2022-11-17T17:15:17.428Z,9.20
2022-11-17T17:17:43.893Z,9.22
2022-11-17T17:20:10.824Z,9.24
2022-11-17T17:22:37.276Z,9.37
2022-11-17T17:25:04.216Z,9.33
2022-11-17T17:27:31.547Z,9.32
2022-11-17T17:29:58.146Z,9.32
2022-11-17T17:32:24.608Z,9.36
2022-11-17T17:34:51.600Z,9.44
2022-11-17T17:37:20.140Z,9.39
2022-11-17T17:39:46.584Z,9.19
2022-11-17T17:42:13.572Z,9.09
2022-11-17T17:44:40.016Z,9.17
2022-11-17T17:47:06.598Z,9.01
2022-11-17T17:49:33.084Z,9.00
2022-11-17T17:51:59.547Z,9.16
2022-11-17T17:54:26.094Z,9.15
2022-11-17T17:56:52.846Z,9.21
2022-11-17T17:59:19.706Z,9.08
2022-11-17T18:01:47.517Z,8.98
2022-11-17T18:04:32.856Z,8.99
2022-11-17T18:07:19.727Z,8.77
2022-11-17T18:10:06.960Z,8.96
2022-11-17T18:12:53.767Z,9.03
2022-11-17T18:15:40.625Z,8.98
2022-11-17T18:18:27.471Z,8.86
2022-11-17T18:21:18.777Z,9.02
2022-11-17T18:24:05.905Z,9.17
2022-11-17T18:26:55.129Z,9.16
2022-11-17T18:29:41.945Z,9.25
2022-11-17T18:32:28.835Z,9.20
2022-11-17T18:35:15.676Z,9.23
2022-11-17T18:38:02.453Z,9.22
2022-11-17T18:40:49.280Z,9.24
2022-11-17T18:43:36.424Z,9.17
2022-11-17T18:46:25.277Z,9.03
2022-11-17T18:49:12.082Z,8.96
2022-11-17T18:52:06.313Z,8.95
2022-11-17T18:54:53.123Z,9.00
2022-11-17T18:57:44.661Z,9.06
2022-11-17T19:00:31.900Z,9.10
2022-11-17T19:03:21.109Z,9.08
2022-11-17T19:06:09.524Z,9.08
2022-11-17T19:08:58.756Z,9.03
2022-11-17T19:11:45.542Z,9.06
2022-11-17T19:14:32.884Z,9.22
2022-11-17T19:17:19.686Z,9.22
2022-11-17T19:20:07.196Z,9.20
2022-11-17T19:22:55.040Z,9.33
2022-11-17T19:25:42.506Z,9.05
2022-11-17T19:28:29.283Z,9.20
2022-11-17T19:31:18.694Z,9.25
2022-11-17T19:34:05.848Z,9.22
2022-11-17T19:36:52.869Z,9.23
2022-11-17T19:39:39.707Z,9.06
2022-11-17T19:42:26.499Z,9.08
2022-11-17T19:45:13.324Z,9.03
2022-11-17T19:48:00.889Z,8.96
2022-11-17T19:50:51.694Z,8.89
2022-11-17T19:53:42.416Z,8.94
2022-11-17T19:56:29.826Z,9.11
2022-11-17T19:59:16.988Z,9.15
2022-11-17T20:02:03.841Z,9.11
2022-11-17T20:04:50.635Z,8.91
2022-11-17T20:07:37.603Z,8.84
2022-11-17T20:10:24.463Z,9.05
2022-11-17T20:13:11.237Z,9.14
2022-11-17T20:16:05.129Z,9.01
2022-11-17T20:18:57.028Z,8.99
2022-11-17T20:21:45.887Z,9.09
2022-11-17T20:24:32.924Z,9.08
2022-11-17T20:27:22.103Z,9.16
2022-11-17T20:30:13.783Z,9.21
2022-11-17T20:33:04.377Z,9.18
2022-11-17T20:35:51.181Z,9.21
2022-11-17T20:38:38.049Z,9.18
2022-11-17T20:41:25.294Z,9.09
2022-11-17T20:44:23.706Z,9.06
2022-11-17T20:47:11.107Z,9.02
2022-11-17T20:49:57.897Z,8.96
2022-11-17T20:52:44.698Z,8.79
2022-11-17T20:55:31.492Z,8.72
2022-11-17T20:58:18.406Z,8.68
2022-11-17T21:01:16.483Z,8.64
2022-11-17T21:04:03.602Z,8.58
2022-11-17T21:06:52.701Z,8.64
2022-11-17T21:09:39.611Z,8.69
2022-11-17T21:12:27.127Z,8.78
2022-11-17T21:15:14.071Z,8.63
2022-11-17T21:18:19.327Z,8.67
2022-11-17T21:21:09.324Z,8.73
2022-11-17T21:23:56.235Z,8.71
2022-11-17T21:26:43.347Z,8.66
2022-11-17T21:29:30.178Z,8.75
2022-11-17T21:32:16.983Z,8.62
2022-11-17T21:35:05.811Z,8.66
2022-11-17T21:37:55.641Z,8.54
2022-11-17T21:40:42.428Z,8.56
2022-11-17T21:43:29.757Z,8.57
2022-11-17T21:46:23.138Z,8.55
2022-11-17T21:49:09.951Z,8.49
2022-11-17T21:51:56.751Z,8.55
2022-11-17T21:54:43.553Z,8.49
2022-11-17T21:57:30.499Z,8.50
2022-11-17T22:00:17.848Z,8.49
2022-11-17T22:03:04.733Z,8.52
2022-11-17T22:05:52.342Z,8.57
2022-11-17T22:08:41.759Z,8.58
2022-11-17T22:11:37.282Z,8.53
2022-11-17T22:14:26.859Z,8.61
2022-11-17T22:17:13.632Z,8.57
2022-11-17T22:20:00.384Z,8.57
2022-11-17T22:22:53.666Z,8.57
2022-11-17T22:25:45.161Z,8.63
2022-11-17T22:28:32.798Z,8.60
2022-11-17T22:31:19.948Z,8.69
2022-11-17T22:34:06.717Z,8.62
2022-11-17T22:36:53.484Z,8.58
2022-11-17T22:39:40.284Z,8.62
2022-11-17T22:42:27.055Z,8.61
2022-11-17T22:45:13.872Z,8.63
2022-11-17T22:48:01.662Z,8.63
2022-11-17T22:50:48.483Z,8.59
2022-11-17T22:53:35.387Z,8.67
2022-11-17T22:56:22.146Z,8.70
2022-11-17T22:59:09.651Z,8.80
2022-11-17T23:01:58.577Z,8.83
2022-11-17T23:04:45.344Z,8.91
2022-11-17T23:07:34.407Z,8.95
2022-11-17T23:10:21.462Z,8.92
2022-11-17T23:13:08.237Z,8.24
2022-11-17T23:15:55.119Z,8.77
2022-11-17T23:18:42.178Z,8.87
2022-11-17T23:21:29.359Z,8.85
2022-11-17T23:24:23.399Z,8.88
2022-11-17T23:27:10.188Z,9.03
2022-11-17T23:29:56.957Z,9.05
2022-11-17T23:32:43.724Z,8.89
2022-11-17T23:35:30.546Z,9.03
2022-11-17T23:38:17.307Z,9.06
2022-11-17T23:41:06.951Z,9.06
2022-11-17T23:43:54.584Z,9.07
2022-11-17T23:46:41.955Z,9.10
2022-11-17T23:49:28.916Z,9.13
2022-11-17T23:52:15.763Z,9.12
2022-11-17T23:55:02.853Z,9.10
2022-11-17T23:57:49.610Z,9.07
